sensor_id;sensor_type;location;lat;lon;timestamp;pressure;altitude;pressure_sealevel;temperature;humidity
54266;BME280;40836;39.770;2.714;2022-11-12T00:00:42;102485.25;;;20.58;64.86
54266;BME280;40836;39.770;2.714;2022-11-12T00:03:07;102491.38;;;20.55;64.66
54266;BME280;40836;39.770;2.714;2022-11-12T00:05:33;102482.63;;;20.53;64.99
54266;BME280;40836;39.770;2.714;2022-11-12T00:07:59;102490.50;;;20.45;65.35
54266;BME280;40836;39.770;2.714;2022-11-12T00:10:25;102483.22;;;20.41;65.76
54266;BME280;40836;39.770;2.714;2022-11-12T00:12:51;102480.97;;;20.25;65.95
54266;BME280;40836;39.770;2.714;2022-11-12T00:15:16;102481.44;;;20.27;65.92
54266;BME280;40836;39.770;2.714;2022-11-12T00:17:42;102474.53;;;20.30;66.00
54266;BME280;40836;39.770;2.714;2022-11-12T00:20:08;102473.53;;;20.35;65.72
54266;BME280;40836;39.770;2.714;2022-11-12T00:22:34;102452.94;;;20.28;65.57
54266;BME280;40836;39.770;2.714;2022-11-12T00:25:00;102456.81;;;20.36;65.66
54266;BME280;40836;39.770;2.714;2022-11-12T00:27:25;102466.63;;;20.37;64.89
54266;BME280;40836;39.770;2.714;2022-11-12T00:29:51;102459.72;;;20.40;65.10
54266;BME280;40836;39.770;2.714;2022-11-12T00:32:17;102440.03;;;20.29;64.75
54266;BME280;40836;39.770;2.714;2022-11-12T00:34:42;102451.97;;;20.33;64.57
54266;BME280;40836;39.770;2.714;2022-11-12T00:37:08;102454.03;;;20.27;64.42
54266;BME280;40836;39.770;2.714;2022-11-12T00:39:33;102466.78;;;20.41;64.58
54266;BME280;40836;39.770;2.714;2022-11-12T00:41:58;102461.47;;;20.44;64.83
54266;BME280;40836;39.770;2.714;2022-11-12T00:44:24;102435.84;;;20.23;64.75
54266;BME280;40836;39.770;2.714;2022-11-12T00:46:49;102466.78;;;20.41;64.98
54266;BME280;40836;39.770;2.714;2022-11-12T00:49:15;102468.53;;;20.28;64.30
54266;BME280;40836;39.770;2.714;2022-11-12T00:51:41;102451.63;;;20.26;64.28
54266;BME280;40836;39.770;2.714;2022-11-12T00:54:06;102463.25;;;20.32;64.17
54266;BME280;40836;39.770;2.714;2022-11-12T00:56:32;102465.31;;;20.35;64.66
54266;BME280;40836;39.770;2.714;2022-11-12T00:58:57;102459.53;;;20.36;64.64
54266;BME280;40836;39.770;2.714;2022-11-12T01:01:23;102463.09;;;20.37;64.68
54266;BME280;40836;39.770;2.714;2022-11-12T01:03:49;102457.44;;;20.33;64.68
54266;BME280;40836;39.770;2.714;2022-11-12T01:06:20;102465.31;;;20.35;64.72
54266;BME280;40836;39.770;2.714;2022-11-12T01:08:46;102462.44;;;20.31;65.00
54266;BME280;40836;39.770;2.714;2022-11-12T01:11:20;102457.13;;;20.26;64.35
54266;BME280;40836;39.770;2.714;2022-11-12T01:13:53;102459.06;;;20.25;64.64
54266;BME280;40836;39.770;2.714;2022-11-12T01:16:21;102473.84;;;20.24;64.19
54266;BME280;40836;39.770;2.714;2022-11-12T01:18:51;102457.59;;;20.28;64.23
54266;BME280;40836;39.770;2.714;2022-11-12T01:21:18;102456.13;;;20.31;64.38
54266;BME280;40836;39.770;2.714;2022-11-12T01:23:43;102450.50;;;20.27;64.31
54266;BME280;40836;39.770;2.714;2022-11-12T01:26:12;102456.94;;;20.31;63.64
54266;BME280;40836;39.770;2.714;2022-11-12T01:28:39;102458.56;;;20.32;64.07
54266;BME280;40836;39.770;2.714;2022-11-12T01:31:12;102464.19;;;20.27;63.95
54266;BME280;40836;39.770;2.714;2022-11-12T01:33:40;102459.22;;;20.29;64.22
54266;BME280;40836;39.770;2.714;2022-11-12T01:36:06;102459.84;;;20.35;63.88
54266;BME280;40836;39.770;2.714;2022-11-12T01:38:36;102448.75;;;20.40;64.13
54266;BME280;40836;39.770;2.714;2022-11-12T01:41:03;102424.38;;;20.21;63.83
54266;BME280;40836;39.770;2.714;2022-11-12T01:43:28;102454.56;;;20.38;63.87
54266;BME280;40836;39.770;2.714;2022-11-12T01:45:54;102450.19;;;20.37;63.89
54266;BME280;40836;39.770;2.714;2022-11-12T01:51:19;102454.88;;;20.37;63.83
54266;BME280;40836;39.770;2.714;2022-11-12T01:53:48;102466.63;;;20.37;64.47
54266;BME280;40836;39.770;2.714;2022-11-12T01:56:17;102457.59;;;20.37;64.55
54266;BME280;40836;39.770;2.714;2022-11-12T01:58:45;102455.66;;;20.37;64.56
54266;BME280;40836;39.770;2.714;2022-11-12T02:01:12;102449.38;;;20.37;64.80
54266;BME280;40836;39.770;2.714;2022-11-12T02:03:37;102445.84;;;20.36;64.82
54266;BME280;40836;39.770;2.714;2022-11-12T02:06:08;102457.31;;;20.38;63.61
54266;BME280;40836;39.770;2.714;2022-11-12T02:08:36;102453.72;;;20.38;63.32
54266;BME280;40836;39.770;2.714;2022-11-12T02:11:23;102461.31;;;20.32;64.26
54266;BME280;40836;39.770;2.714;2022-11-12T02:13:50;102445.97;;;20.31;64.51
54266;BME280;40836;39.770;2.714;2022-11-12T02:16:43;102448.72;;;20.31;65.03
54266;BME280;40836;39.770;2.714;2022-11-12T02:19:12;102452.13;;;20.37;65.02
54266;BME280;40836;39.770;2.714;2022-11-12T02:21:38;102436.66;;;20.32;65.25
54266;BME280;40836;39.770;2.714;2022-11-12T02:26:53;102438.75;;;20.26;65.57
54266;BME280;40836;39.770;2.714;2022-11-12T02:29:20;102433.41;;;20.30;65.85
54266;BME280;40836;39.770;2.714;2022-11-12T02:31:46;102431.66;;;20.25;65.78
54266;BME280;40836;39.770;2.714;2022-11-12T02:34:11;102410.69;;;20.12;66.21
54266;BME280;40836;39.770;2.714;2022-11-12T02:36:37;102427.44;;;20.19;66.46
54266;BME280;40836;39.770;2.714;2022-11-12T02:39:04;102421.47;;;20.17;66.16
54266;BME280;40836;39.770;2.714;2022-11-12T02:41:29;102417.94;;;20.17;66.47
54266;BME280;40836;39.770;2.714;2022-11-12T02:43:55;102418.56;;;20.14;66.11
54266;BME280;40836;39.770;2.714;2022-11-12T02:46:21;102406.50;;;20.06;65.73
54266;BME280;40836;39.770;2.714;2022-11-12T02:48:46;102419.38;;;20.14;65.92
54266;BME280;40836;39.770;2.714;2022-11-12T02:51:12;102416.16;;;20.21;65.97
54266;BME280;40836;39.770;2.714;2022-11-12T02:53:37;102417.44;;;20.15;65.36
54266;BME280;40836;39.770;2.714;2022-11-12T02:56:03;102406.66;;;20.18;65.03
54266;BME280;40836;39.770;2.714;2022-11-12T02:58:29;102400.69;;;20.25;65.83
54266;BME280;40836;39.770;2.714;2022-11-12T03:00:55;102403.63;;;20.28;65.36
54266;BME280;40836;39.770;2.714;2022-11-12T03:03:21;102396.34;;;20.24;64.96
54266;BME280;40836;39.770;2.714;2022-11-12T03:05:57;102404.75;;;20.19;65.30
54266;BME280;40836;39.770;2.714;2022-11-12T03:08:23;102402.13;;;20.14;66.17
54266;BME280;40836;39.770;2.714;2022-11-12T03:10:49;102402.13;;;20.14;66.04
54266;BME280;40836;39.770;2.714;2022-11-12T03:13:15;102402.63;;;20.16;65.51
54266;BME280;40836;39.770;2.714;2022-11-12T03:15:41;102358.31;;;19.96;65.27
54266;BME280;40836;39.770;2.714;2022-11-12T03:18:06;102386.66;;;20.18;65.67
54266;BME280;40836;39.770;2.714;2022-11-12T03:20:32;102397.31;;;20.19;65.29
54266;BME280;40836;39.770;2.714;2022-11-12T03:23:09;102388.47;;;20.22;65.14
54266;BME280;40836;39.770;2.714;2022-11-12T03:25:35;102399.09;;;20.24;65.61
54266;BME280;40836;39.770;2.714;2022-11-12T03:28:01;102390.06;;;20.23;65.61
54266;BME280;40836;39.770;2.714;2022-11-12T03:30:29;102380.41;;;20.26;65.41
54266;BME280;40836;39.770;2.714;2022-11-12T03:32:55;102391.03;;;20.27;65.36
54266;BME280;40836;39.770;2.714;2022-11-12T03:35:21;102366.38;;;20.19;65.69
54266;BME280;40836;39.770;2.714;2022-11-12T03:37:46;102392.03;;;20.32;65.36
54266;BME280;40836;39.770;2.714;2022-11-12T03:40:12;102388.00;;;20.29;64.98
54266;BME280;40836;39.770;2.714;2022-11-12T03:42:38;102387.34;;;20.32;64.68
54266;BME280;40836;39.770;2.714;2022-11-12T03:45:03;102390.88;;;20.24;65.16
54266;BME280;40836;39.770;2.714;2022-11-12T03:47:29;102347.69;;;20.03;65.06
54266;BME280;40836;39.770;2.714;2022-11-12T03:49:54;102390.06;;;20.23;64.37
54266;BME280;40836;39.770;2.714;2022-11-12T03:52:20;102391.50;;;20.21;64.19
54266;BME280;40836;39.770;2.714;2022-11-12T03:54:45;102389.28;;;20.23;64.46
54266;BME280;40836;39.770;2.714;2022-11-12T03:57:10;102386.34;;;20.28;64.47
54266;BME280;40836;39.770;2.714;2022-11-12T03:59:36;102389.94;;;20.28;64.25
54266;BME280;40836;39.770;2.714;2022-11-12T04:02:01;102380.56;;;20.30;64.79
54266;BME280;40836;39.770;2.714;2022-11-12T04:04:27;102383.97;;;20.35;64.73
54266;BME280;40836;39.770;2.714;2022-11-12T04:07:12;102375.75;;;20.35;64.14
54266;BME280;40836;39.770;2.714;2022-11-12T04:09:56;102385.56;;;20.36;64.56
54266;BME280;40836;39.770;2.714;2022-11-12T04:12:21;102376.38;;;20.41;64.29
54266;BME280;40836;39.770;2.714;2022-11-12T04:15:06;102370.09;;;20.40;64.71
54266;BME280;40836;39.770;2.714;2022-11-12T04:17:31;102372.66;;;20.37;64.97
54266;BME280;40836;39.770;2.714;2022-11-12T04:20:15;102343.00;;;20.21;64.19
54266;BME280;40836;39.770;2.714;2022-11-12T04:22:59;102372.84;;;20.32;63.28
54266;BME280;40836;39.770;2.714;2022-11-12T04:25:25;102356.22;;;20.28;63.63
54266;BME280;40836;39.770;2.714;2022-11-12T04:28:09;102383.31;;;20.38;63.95
54266;BME280;40836;39.770;2.714;2022-11-12T04:30:34;102384.75;;;20.36;64.16
54266;BME280;40836;39.770;2.714;2022-11-12T04:32:59;102382.34;;;20.34;63.83
54266;BME280;40836;39.770;2.714;2022-11-12T04:35:26;102385.72;;;20.40;64.06
54266;BME280;40836;39.770;2.714;2022-11-12T04:37:51;102385.56;;;20.45;64.30
54266;BME280;40836;39.770;2.714;2022-11-12T04:43:04;102377.66;;;20.35;64.37
54266;BME280;40836;39.770;2.714;2022-11-12T04:45:49;102383.47;;;20.33;64.66
54266;BME280;40836;39.770;2.714;2022-11-12T04:48:15;102386.69;;;20.26;64.60
54266;BME280;40836;39.770;2.714;2022-11-12T04:50:42;102398.78;;;20.34;64.89
54266;BME280;40836;39.770;2.714;2022-11-12T04:53:08;102390.56;;;20.34;65.15
54266;BME280;40836;39.770;2.714;2022-11-12T04:55:34;102370.41;;;20.21;64.98
54266;BME280;40836;39.770;2.714;2022-11-12T04:57:59;102390.25;;;20.36;65.20
54266;BME280;40836;39.770;2.714;2022-11-12T05:00:25;102382.19;;;20.39;65.24
54266;BME280;40836;39.770;2.714;2022-11-12T05:02:51;102386.22;;;20.42;65.02
54266;BME280;40836;39.770;2.714;2022-11-12T05:05:16;102368.97;;;20.33;65.71
54266;BME280;40836;39.770;2.714;2022-11-12T05:07:42;102383.13;;;20.43;65.28
54266;BME280;40836;39.770;2.714;2022-11-12T05:10:08;102395.88;;;20.39;65.48
54266;BME280;40836;39.770;2.714;2022-11-12T05:12:33;102386.53;;;20.40;65.45
54266;BME280;40836;39.770;2.714;2022-11-12T05:14:58;102386.22;;;20.33;65.53
54266;BME280;40836;39.770;2.714;2022-11-12T05:17:24;102391.03;;;20.36;65.28
54266;BME280;40836;39.770;2.714;2022-11-12T05:19:49;102383.13;;;20.35;65.24
54266;BME280;40836;39.770;2.714;2022-11-12T05:22:15;102394.09;;;20.35;65.76
54266;BME280;40836;39.770;2.714;2022-11-12T05:24:42;102397.97;;;20.42;65.13
54266;BME280;40836;39.770;2.714;2022-11-12T05:27:21;102386.53;;;20.40;65.25
54266;BME280;40836;39.770;2.714;2022-11-12T05:29:46;102398.63;;;20.39;65.35
54266;BME280;40836;39.770;2.714;2022-11-12T05:32:14;102405.06;;;20.43;65.14
54266;BME280;40836;39.770;2.714;2022-11-12T05:34:40;102411.19;;;20.40;65.36
54266;BME280;40836;39.770;2.714;2022-11-12T05:37:07;102401.84;;;20.41;65.36
54266;BME280;40836;39.770;2.714;2022-11-12T05:39:33;102408.94;;;20.42;65.33
54266;BME280;40836;39.770;2.714;2022-11-12T05:41:58;102391.34;;;20.35;65.19
54266;BME280;40836;39.770;2.714;2022-11-12T05:44:24;102402.97;;;20.32;65.26
54266;BME280;40836;39.770;2.714;2022-11-12T05:46:49;102392.97;;;20.27;65.14
54266;BME280;40836;39.770;2.714;2022-11-12T05:49:16;102408.13;;;20.42;65.00
54266;BME280;40836;39.770;2.714;2022-11-12T05:51:41;102410.88;;;20.42;64.40
54266;BME280;40836;39.770;2.714;2022-11-12T05:54:07;102413.13;;;20.40;64.80
54266;BME280;40836;39.770;2.714;2022-11-12T05:56:34;102388.94;;;20.24;64.69
54266;BME280;40836;39.770;2.714;2022-11-12T05:59:00;102429.56;;;20.40;64.28
54266;BME280;40836;39.770;2.714;2022-11-12T06:01:26;102415.22;;;20.43;64.48
54266;BME280;40836;39.770;2.714;2022-11-12T06:03:51;102412.81;;;20.41;64.49
54266;BME280;40836;39.770;2.714;2022-11-12T06:06:17;102418.75;;;20.43;64.70
54266;BME280;40836;39.770;2.714;2022-11-12T06:08:42;102426.31;;;20.38;64.76
54266;BME280;40836;39.770;2.714;2022-11-12T06:11:08;102416.19;;;20.38;64.90
54266;BME280;40836;39.770;2.714;2022-11-12T06:13:33;102393.63;;;20.33;64.61
54266;BME280;40836;39.770;2.714;2022-11-12T06:15:59;102430.69;;;20.47;64.82
54266;BME280;40836;39.770;2.714;2022-11-12T06:18:24;102419.72;;;20.47;64.83
54266;BME280;40836;39.770;2.714;2022-11-12T06:20:50;102408.13;;;20.50;64.40
54266;BME280;40836;39.770;2.714;2022-11-12T06:23:34;102407.00;;;20.34;64.24
54266;BME280;40836;39.770;2.714;2022-11-12T06:26:00;102419.56;;;20.44;64.39
54266;BME280;40836;39.770;2.714;2022-11-12T06:28:26;102410.53;;;20.43;65.00
54266;BME280;40836;39.770;2.714;2022-11-12T06:30:51;102410.06;;;20.41;64.60
54266;BME280;40836;39.770;2.714;2022-11-12T06:33:17;102427.63;;;20.49;64.75
54266;BME280;40836;39.770;2.714;2022-11-12T06:35:42;102423.16;;;20.53;64.96
54266;BME280;40836;39.770;2.714;2022-11-12T06:38:08;102416.69;;;20.49;65.05
54266;BME280;40836;39.770;2.714;2022-11-12T06:40:34;102385.56;;;20.27;65.23
54266;BME280;40836;39.770;2.714;2022-11-12T06:42:59;102434.91;;;20.45;65.11
54266;BME280;40836;39.770;2.714;2022-11-12T06:45:25;102417.47;;;20.49;64.53
54266;BME280;40836;39.770;2.714;2022-11-12T06:47:50;102431.72;;;20.52;64.78
54266;BME280;40836;39.770;2.714;2022-11-12T06:50:16;102428.63;;;20.53;64.60
54266;BME280;40836;39.770;2.714;2022-11-12T06:52:41;102424.94;;;20.58;64.78
54266;BME280;40836;39.770;2.714;2022-11-12T06:55:07;102440.25;;;20.59;64.63
54266;BME280;40836;39.770;2.714;2022-11-12T06:57:33;102428.47;;;20.58;64.07
54266;BME280;40836;39.770;2.714;2022-11-12T06:59:59;102427.84;;;20.61;64.82
54266;BME280;40836;39.770;2.714;2022-11-12T07:02:24;102441.53;;;20.61;64.68
54266;BME280;40836;39.770;2.714;2022-11-12T07:04:50;102435.09;;;20.66;64.27
54266;BME280;40836;39.770;2.714;2022-11-12T07:07:15;102438.31;;;20.68;64.41
54266;BME280;40836;39.770;2.714;2022-11-12T07:09:41;102436.53;;;20.63;64.22
54266;BME280;40836;39.770;2.714;2022-11-12T07:12:06;102448.63;;;20.71;64.32
54266;BME280;40836;39.770;2.714;2022-11-12T07:14:32;102436.53;;;20.63;64.35
54266;BME280;40836;39.770;2.714;2022-11-12T07:16:57;102450.38;;;20.67;64.87
54266;BME280;40836;39.770;2.714;2022-11-12T07:19:23;102448.28;;;20.64;64.46
54266;BME280;40836;39.770;2.714;2022-11-12T07:21:48;102439.13;;;20.68;64.84
54266;BME280;40836;39.770;2.714;2022-11-12T07:24:13;102442.16;;;20.67;65.01
54266;BME280;40836;39.770;2.714;2022-11-12T07:26:39;102440.75;;;20.61;63.93
54266;BME280;40836;39.770;2.714;2022-11-12T07:29:04;102431.53;;;20.65;64.22
54266;BME280;40836;39.770;2.714;2022-11-12T07:31:31;102440.56;;;20.66;64.30
54266;BME280;40836;39.770;2.714;2022-11-12T07:33:57;102443.16;;;20.62;64.24
54266;BME280;40836;39.770;2.714;2022-11-12T07:36:22;102440.75;;;20.61;64.52
54266;BME280;40836;39.770;2.714;2022-11-12T07:38:51;102458.47;;;20.72;64.08
54266;BME280;40836;39.770;2.714;2022-11-12T07:41:19;102453.31;;;20.70;64.61
54266;BME280;40836;39.770;2.714;2022-11-12T07:43:46;102449.28;;;20.59;64.43
54266;BME280;40836;39.770;2.714;2022-11-12T07:46:14;102450.88;;;20.69;64.18
54266;BME280;40836;39.770;2.714;2022-11-12T07:48:40;102449.59;;;20.75;64.20
54266;BME280;40836;39.770;2.714;2022-11-12T07:53:41;102453.47;;;20.74;64.01
54266;BME280;40836;39.770;2.714;2022-11-12T07:56:12;102459.44;;;20.76;63.79
54266;BME280;40836;39.770;2.714;2022-11-12T07:58:38;102448.31;;;20.81;64.23
54266;BME280;40836;39.770;2.714;2022-11-12T08:01:35;102441.22;;;20.80;64.41
54266;BME280;40836;39.770;2.714;2022-11-12T08:04:04;102449.25;;;20.77;63.96
54266;BME280;40836;39.770;2.714;2022-11-12T08:06:31;102434.75;;;20.85;64.17
54266;BME280;40836;39.770;2.714;2022-11-12T08:08:58;102448.31;;;20.81;64.31
54266;BME280;40836;39.770;2.714;2022-11-12T08:11:24;102426.72;;;20.71;63.84
54266;BME280;40836;39.770;2.714;2022-11-12T08:13:50;102436.69;;;20.84;63.63
54266;BME280;40836;39.770;2.714;2022-11-12T08:16:16;102447.31;;;20.86;63.52
54266;BME280;40836;39.770;2.714;2022-11-12T08:18:42;102440.53;;;20.83;62.94
54266;BME280;40836;39.770;2.714;2022-11-12T08:21:11;102427.50;;;20.71;63.24
54266;BME280;40836;39.770;2.714;2022-11-12T08:23:37;102447.50;;;20.81;63.54
54266;BME280;40836;39.770;2.714;2022-11-12T08:26:05;102456.03;;;20.88;63.24
54266;BME280;40836;39.770;2.714;2022-11-12T08:28:32;102451.22;;;20.93;63.51
54266;BME280;40836;39.770;2.714;2022-11-12T08:31:06;102444.75;;;20.98;63.77
54266;BME280;40836;39.770;2.714;2022-11-12T08:33:32;102454.91;;;20.97;63.67
54266;BME280;40836;39.770;2.714;2022-11-12T08:36:00;102447.66;;;20.93;63.35
54266;BME280;40836;39.770;2.714;2022-11-12T08:38:26;102448.31;;;20.90;63.22
54266;BME280;40836;39.770;2.714;2022-11-12T08:40:52;102441.38;;;20.75;63.23
54266;BME280;40836;39.770;2.714;2022-11-12T08:43:17;102456.53;;;20.90;63.77
54266;BME280;40836;39.770;2.714;2022-11-12T08:45:43;102460.69;;;21.05;63.04
54266;BME280;40836;39.770;2.714;2022-11-12T08:48:13;102450.38;;;21.19;63.64
54266;BME280;40836;39.770;2.714;2022-11-12T08:50:39;102444.03;;;21.27;63.05
54266;BME280;40836;39.770;2.714;2022-11-12T08:53:07;102463.06;;;21.41;62.66
54266;BME280;40836;39.770;2.714;2022-11-12T08:55:34;102444.69;;;21.41;63.41
54266;BME280;40836;39.770;2.714;2022-11-12T08:58:00;102465.44;;;21.60;63.20
54266;BME280;40836;39.770;2.714;2022-11-12T09:00:31;102465.28;;;21.56;61.92
54266;BME280;40836;39.770;2.714;2022-11-12T09:03:02;102454.94;;;21.62;61.70
54266;BME280;40836;39.770;2.714;2022-11-12T09:05:28;102463.31;;;21.65;61.48
54266;BME280;40836;39.770;2.714;2022-11-12T09:08:02;102433.00;;;21.53;61.90
54266;BME280;40836;39.770;2.714;2022-11-12T09:10:29;102425.88;;;21.61;61.25
54266;BME280;40836;39.770;2.714;2022-11-12T09:12:54;102452.59;;;21.81;61.77
54266;BME280;40836;39.770;2.714;2022-11-12T09:15:21;102462.41;;;21.91;61.81
54266;BME280;40836;39.770;2.714;2022-11-12T09:17:47;102453.66;;;21.89;60.55
54266;BME280;40836;39.770;2.714;2022-11-12T09:20:13;102464.13;;;21.96;61.80
54266;BME280;40836;39.770;2.714;2022-11-12T09:22:38;102466.03;;;22.04;61.58
54266;BME280;40836;39.770;2.714;2022-11-12T09:25:04;102467.91;;;22.12;60.85
54266;BME280;40836;39.770;2.714;2022-11-12T09:27:30;102467.78;;;22.17;60.13
54266;BME280;40836;39.770;2.714;2022-11-12T09:29:56;102464.50;;;22.24;59.11
54266;BME280;40836;39.770;2.714;2022-11-12T09:32:21;102468.53;;;22.26;59.58
54266;BME280;40836;39.770;2.714;2022-11-12T09:34:47;102471.72;;;22.28;59.15
54266;BME280;40836;39.770;2.714;2022-11-12T09:37:12;102466.09;;;22.25;59.47
54266;BME280;40836;39.770;2.714;2022-11-12T09:39:38;102431.47;;;22.03;59.87
54266;BME280;40836;39.770;2.714;2022-11-12T09:42:08;102464.84;;;22.13;60.28
54266;BME280;40836;39.770;2.714;2022-11-12T09:44:39;102477.09;;;22.25;60.89
54266;BME280;40836;39.770;2.714;2022-11-12T09:47:19;102465.97;;;22.21;60.24
54266;BME280;40836;39.770;2.714;2022-11-12T09:50:19;102469.19;;;22.23;60.11
54266;BME280;40836;39.770;2.714;2022-11-12T09:52:48;102457.94;;;22.07;59.77
54266;BME280;40836;39.770;2.714;2022-11-12T09:55:21;102474.97;;;22.30;60.09
54266;BME280;40836;39.770;2.714;2022-11-12T09:57:51;102475.31;;;22.29;59.87
54266;BME280;40836;39.770;2.714;2022-11-12T10:00:18;102474.66;;;22.32;59.29
54266;BME280;40836;39.770;2.714;2022-11-12T10:05:39;102464.91;;;22.05;59.57
54266;BME280;40836;39.770;2.714;2022-11-12T10:19:25;102469.81;;;22.50;59.45
54266;BME280;40836;39.770;2.714;2022-11-12T10:24:39;102462.59;;;22.45;58.85
54266;BME280;40836;39.770;2.714;2022-11-12T10:27:17;102460.50;;;22.42;58.83
54266;BME280;40836;39.770;2.714;2022-11-12T10:30:00;102468.75;;;22.42;59.44
54266;BME280;40836;39.770;2.714;2022-11-12T10:32:27;102463.44;;;22.37;58.39
54266;BME280;40836;39.770;2.714;2022-11-12T10:34:52;102463.91;;;22.39;58.15
54266;BME280;40836;39.770;2.714;2022-11-12T10:37:22;102450.63;;;22.41;58.54
54266;BME280;40836;39.770;2.714;2022-11-12T10:39:49;102454.41;;;22.36;58.74
54266;BME280;40836;39.770;2.714;2022-11-12T10:42:16;102450.03;;;22.35;58.93
54266;BME280;40836;39.770;2.714;2022-11-12T10:44:43;102433.75;;;22.30;59.69
54266;BME280;40836;39.770;2.714;2022-11-12T10:47:32;102436.88;;;22.41;58.60
54266;BME280;40836;39.770;2.714;2022-11-12T10:50:24;102440.16;;;22.34;59.59
54266;BME280;40836;39.770;2.714;2022-11-12T10:53:03;102430.66;;;22.32;59.67
54266;BME280;40836;39.770;2.714;2022-11-12T10:55:33;102429.19;;;22.34;59.68
54266;BME280;40836;39.770;2.714;2022-11-12T11:00:30;102417.44;;;22.46;58.56
54266;BME280;40836;39.770;2.714;2022-11-12T11:02:56;102413.28;;;22.40;58.09
54266;BME280;40836;39.770;2.714;2022-11-12T11:07:56;102418.31;;;22.38;57.58
54266;BME280;40836;39.770;2.714;2022-11-12T11:10:28;102419.28;;;22.42;57.27
54266;BME280;40836;39.770;2.714;2022-11-12T11:13:20;102420.81;;;22.52;57.39
54266;BME280;40836;39.770;2.714;2022-11-12T11:16:06;102399.50;;;22.49;57.64
54266;BME280;40836;39.770;2.714;2022-11-12T11:18:34;102408.72;;;22.65;58.01
54266;BME280;40836;39.770;2.714;2022-11-12T11:23:56;102395.22;;;22.72;57.35
54266;BME280;40836;39.770;2.714;2022-11-12T11:29:37;102393.88;;;22.78;58.19
54266;BME280;40836;39.770;2.714;2022-11-12T11:35:19;102386.09;;;22.80;57.43
54266;BME280;40836;39.770;2.714;2022-11-12T11:51:52;102355.97;;;22.84;57.71
54266;BME280;40836;39.770;2.714;2022-11-12T11:54:50;102375.34;;;22.88;57.46
54266;BME280;40836;39.770;2.714;2022-11-12T11:57:24;102373.94;;;22.81;56.95
54266;BME280;40836;39.770;2.714;2022-11-12T12:02:33;102355.84;;;22.93;57.80
54266;BME280;40836;39.770;2.714;2022-11-12T12:07:55;102361.50;;;22.96;57.44
54266;BME280;40836;39.770;2.714;2022-11-12T12:13:34;102356.25;;;23.03;57.89
54266;BME280;40836;39.770;2.714;2022-11-12T12:21:13;102336.66;;;23.05;58.38
54266;BME280;40836;39.770;2.714;2022-11-12T12:23:47;102340.19;;;23.05;58.11
54266;BME280;40836;39.770;2.714;2022-11-12T12:26:38;102321.19;;;23.00;57.88
54266;BME280;40836;39.770;2.714;2022-11-12T12:29:10;102327.38;;;23.10;57.91
54266;BME280;40836;39.770;2.714;2022-11-12T12:31:40;102327.38;;;23.10;58.54
54266;BME280;40836;39.770;2.714;2022-11-12T12:34:30;102330.25;;;23.13;57.70
54266;BME280;40836;39.770;2.714;2022-11-12T12:37:02;102325.19;;;23.03;57.77
54266;BME280;40836;39.770;2.714;2022-11-12T12:39:54;102334.00;;;22.96;58.42
54266;BME280;40836;39.770;2.714;2022-11-12T12:42:25;102340.22;;;22.93;58.33
54266;BME280;40836;39.770;2.714;2022-11-12T12:44:57;102328.03;;;22.94;57.63
54266;BME280;40836;39.770;2.714;2022-11-12T12:47:39;102328.16;;;22.98;57.83
54266;BME280;40836;39.770;2.714;2022-11-12T12:50:17;102325.88;;;23.00;57.80
54266;BME280;40836;39.770;2.714;2022-11-12T12:53:04;102320.38;;;23.00;57.03
54266;BME280;40836;39.770;2.714;2022-11-12T12:55:37;102318.44;;;23.00;57.71
54266;BME280;40836;39.770;2.714;2022-11-12T12:58:03;102311.22;;;23.08;57.95
54266;BME280;40836;39.770;2.714;2022-11-12T13:00:39;102311.00;;;23.13;58.18
54266;BME280;40836;39.770;2.714;2022-11-12T13:03:05;102285.97;;;23.06;58.08
54266;BME280;40836;39.770;2.714;2022-11-12T13:05:34;102300.91;;;23.17;57.65
54266;BME280;40836;39.770;2.714;2022-11-12T13:08:08;102300.66;;;23.10;57.10
54266;BME280;40836;39.770;2.714;2022-11-12T13:15:49;102293.25;;;22.90;56.82
54266;BME280;40836;39.770;2.714;2022-11-12T13:21:28;102283.41;;;22.89;56.26
54266;BME280;40836;39.770;2.714;2022-11-12T13:23:59;102281.41;;;22.98;56.83
54266;BME280;40836;39.770;2.714;2022-11-12T13:26:48;102270.47;;;22.89;56.67
54266;BME280;40836;39.770;2.714;2022-11-12T13:29:21;102266.72;;;22.94;56.57
54266;BME280;40836;39.770;2.714;2022-11-12T13:31:47;102264.69;;;23.03;56.21
54266;BME280;40836;39.770;2.714;2022-11-12T13:34:21;102255.47;;;22.99;56.21
54266;BME280;40836;39.770;2.714;2022-11-12T13:37:04;102262.47;;;23.09;56.78
54266;BME280;40836;39.770;2.714;2022-11-12T13:39:34;102267.19;;;23.08;56.71
54266;BME280;40836;39.770;2.714;2022-11-12T13:42:10;102261.09;;;22.90;56.60
54266;BME280;40836;39.770;2.714;2022-11-12T13:44:58;102259.47;;;22.89;57.39
54266;BME280;40836;39.770;2.714;2022-11-12T13:47:24;102254.88;;;22.81;56.92
54266;BME280;40836;39.770;2.714;2022-11-12T13:49:54;102266.31;;;22.83;57.77
54266;BME280;40836;39.770;2.714;2022-11-12T13:52:21;102252.47;;;22.79;57.10
54266;BME280;40836;39.770;2.714;2022-11-12T13:55:00;102253.84;;;22.86;56.74
54266;BME280;40836;39.770;2.714;2022-11-12T13:57:29;102237.59;;;22.80;57.47
54266;BME280;40836;39.770;2.714;2022-11-12T14:03:16;102240.03;;;22.94;57.39
54266;BME280;40836;39.770;2.714;2022-11-12T14:05:46;102239.06;;;22.90;57.52
54266;BME280;40836;39.770;2.714;2022-11-12T14:22:16;102242.28;;;22.92;57.51
54266;BME280;40836;39.770;2.714;2022-11-12T14:24:42;102231.94;;;22.89;56.84
54266;BME280;40836;39.770;2.714;2022-11-12T14:30:31;102216.59;;;22.88;57.11
54266;BME280;40836;39.770;2.714;2022-11-12T14:33:07;102240.31;;;22.93;57.51
54266;BME280;40836;39.770;2.714;2022-11-12T14:35:36;102236.31;;;22.90;57.35
54266;BME280;40836;39.770;2.714;2022-11-12T14:40:44;102234.06;;;23.04;57.98